sensor_id;sensor_type;location;lat;lon;timestamp;P1;durP1;ratioP1;P2;durP2;ratioP2
5616;SDS011;2830;50.656;7.568;2024-03-23T00:53:50;21.43;;;11.20;;
5616;SDS011;2830;50.656;7.568;2024-03-23T00:56:16;17.57;;;8.10;;
5616;SDS011;2830;50.656;7.568;2024-03-23T00:58:42;8.57;;;5.50;;
5616;SDS011;2830;50.656;7.568;2024-03-23T01:01:08;8.03;;;5.30;;
5616;SDS011;2830;50.656;7.568;2024-03-23T01:03:34;4.33;;;2.50;;
5616;SDS011;2830;50.656;7.568;2024-03-23T01:06:00;4.50;;;2.70;;
5616;SDS011;2830;50.656;7.568;2024-03-23T01:08:27;4.27;;;2.63;;
5616;SDS011;2830;50.656;7.568;2024-03-23T01:10:59;4.30;;;2.53;;
5616;SDS011;2830;50.656;7.568;2024-03-23T01:13:26;4.50;;;2.50;;
5616;SDS011;2830;50.656;7.568;2024-03-23T01:15:53;4.80;;;3.30;;
5616;SDS011;2830;50.656;7.568;2024-03-23T01:18:20;5.83;;;2.63;;
5616;SDS011;2830;50.656;7.568;2024-03-23T01:20:47;9.90;;;4.13;;
5616;SDS011;2830;50.656;7.568;2024-03-23T01:23:13;5.20;;;3.30;;
5616;SDS011;2830;50.656;7.568;2024-03-23T01:25:40;4.97;;;3.23;;
5616;SDS011;2830;50.656;7.568;2024-03-23T01:28:06;6.63;;;3.70;;
5616;SDS011;2830;50.656;7.568;2024-03-23T01:30:33;8.70;;;4.90;;
5616;SDS011;2830;50.656;7.568;2024-03-23T01:32:59;8.17;;;3.53;;
5616;SDS011;2830;50.656;7.568;2024-03-23T01:35:25;8.20;;;3.30;;
5616;SDS011;2830;50.656;7.568;2024-03-23T01:37:51;4.00;;;2.60;;
5616;SDS011;2830;50.656;7.568;2024-03-23T01:40:17;3.70;;;2.17;;
5616;SDS011;2830;50.656;7.568;2024-03-23T01:42:56;4.30;;;2.80;;
5616;SDS011;2830;50.656;7.568;2024-03-23T01:45:23;7.20;;;2.90;;
5616;SDS011;2830;50.656;7.568;2024-03-23T01:47:49;5.23;;;2.43;;
5616;SDS011;2830;50.656;7.568;2024-03-23T01:50:17;4.40;;;2.20;;
5616;SDS011;2830;50.656;7.568;2024-03-23T01:52:43;6.53;;;2.83;;
5616;SDS011;2830;50.656;7.568;2024-03-23T01:55:09;3.97;;;2.43;;
5616;SDS011;2830;50.656;7.568;2024-03-23T01:57:35;4.43;;;2.80;;
5616;SDS011;2830;50.656;7.568;2024-03-23T02:00:01;6.53;;;2.00;;
5616;SDS011;2830;50.656;7.568;2024-03-23T02:02:27;3.67;;;2.03;;
5616;SDS011;2830;50.656;7.568;2024-03-23T02:04:53;4.93;;;2.60;;
5616;SDS011;2830;50.656;7.568;2024-03-23T02:07:19;3.60;;;2.53;;
5616;SDS011;2830;50.656;7.568;2024-03-23T02:09:49;7.10;;;2.93;;
5616;SDS011;2830;50.656;7.568;2024-03-23T02:12:19;4.30;;;2.55;;
5616;SDS011;2830;50.656;7.568;2024-03-23T02:14:45;5.57;;;2.40;;
5616;SDS011;2830;50.656;7.568;2024-03-23T02:17:11;6.63;;;3.57;;
5616;SDS011;2830;50.656;7.568;2024-03-23T02:19:37;6.97;;;3.30;;
5616;SDS011;2830;50.656;7.568;2024-03-23T02:22:04;3.90;;;2.20;;
5616;SDS011;2830;50.656;7.568;2024-03-23T02:24:30;4.83;;;2.30;;
5616;SDS011;2830;50.656;7.568;2024-03-23T02:26:55;4.57;;;3.17;;
5616;SDS011;2830;50.656;7.568;2024-03-23T02:29:21;7.17;;;3.17;;
5616;SDS011;2830;50.656;7.568;2024-03-23T02:31:47;5.67;;;2.20;;
5616;SDS011;2830;50.656;7.568;2024-03-23T02:34:13;4.27;;;2.50;;
5616;SDS011;2830;50.656;7.568;2024-03-23T02:36:39;4.97;;;2.10;;
5616;SDS011;2830;50.656;7.568;2024-03-23T02:39:05;3.63;;;1.50;;
5616;SDS011;2830;50.656;7.568;2024-03-23T02:41:30;3.00;;;1.80;;
5616;SDS011;2830;50.656;7.568;2024-03-23T02:43:56;3.90;;;2.67;;
5616;SDS011;2830;50.656;7.568;2024-03-23T02:46:22;5.33;;;2.57;;
5616;SDS011;2830;50.656;7.568;2024-03-23T02:48:48;4.05;;;2.60;;
5616;SDS011;2830;50.656;7.568;2024-03-23T02:51:14;3.90;;;2.30;;
5616;SDS011;2830;50.656;7.568;2024-03-23T02:53:40;7.53;;;2.53;;
5616;SDS011;2830;50.656;7.568;2024-03-23T02:56:06;5.10;;;3.10;;
5616;SDS011;2830;50.656;7.568;2024-03-23T02:58:33;4.90;;;2.87;;
5616;SDS011;2830;50.656;7.568;2024-03-23T03:00:59;8.17;;;3.30;;
5616;SDS011;2830;50.656;7.568;2024-03-23T03:03:25;6.33;;;3.10;;
5616;SDS011;2830;50.656;7.568;2024-03-23T03:05:55;11.13;;;4.27;;
5616;SDS011;2830;50.656;7.568;2024-03-23T03:08:21;6.32;;;3.33;;
5616;SDS011;2830;50.656;7.568;2024-03-23T03:10:47;6.63;;;4.65;;
5616;SDS011;2830;50.656;7.568;2024-03-23T03:13:13;6.77;;;3.90;;
5616;SDS011;2830;50.656;7.568;2024-03-23T03:15:40;7.80;;;4.25;;
5616;SDS011;2830;50.656;7.568;2024-03-23T03:18:07;12.05;;;4.88;;
5616;SDS011;2830;50.656;7.568;2024-03-23T03:20:32;6.73;;;4.20;;
5616;SDS011;2830;50.656;7.568;2024-03-23T03:23:00;6.90;;;4.17;;
5616;SDS011;2830;50.656;7.568;2024-03-23T03:25:25;7.40;;;4.30;;
5616;SDS011;2830;50.656;7.568;2024-03-23T03:27:51;12.83;;;5.30;;
5616;SDS011;2830;50.656;7.568;2024-03-23T03:30:17;7.50;;;3.53;;
5616;SDS011;2830;50.656;7.568;2024-03-23T03:32:43;7.33;;;4.20;;
5616;SDS011;2830;50.656;7.568;2024-03-23T03:35:09;10.63;;;4.57;;
5616;SDS011;2830;50.656;7.568;2024-03-23T03:37:35;9.37;;;4.33;;
5616;SDS011;2830;50.656;7.568;2024-03-23T03:40:01;8.50;;;5.10;;
5616;SDS011;2830;50.656;7.568;2024-03-23T03:42:26;9.40;;;4.83;;
5616;SDS011;2830;50.656;7.568;2024-03-23T03:44:52;6.83;;;5.33;;
5616;SDS011;2830;50.656;7.568;2024-03-23T03:47:19;12.50;;;4.35;;
5616;SDS011;2830;50.656;7.568;2024-03-23T03:49:45;6.57;;;2.83;;
5616;SDS011;2830;50.656;7.568;2024-03-23T03:52:11;4.70;;;3.00;;
5616;SDS011;2830;50.656;7.568;2024-03-23T03:54:36;4.53;;;2.40;;
5616;SDS011;2830;50.656;7.568;2024-03-23T03:57:02;6.63;;;2.70;;
5616;SDS011;2830;50.656;7.568;2024-03-23T03:59:31;3.72;;;2.10;;
5616;SDS011;2830;50.656;7.568;2024-03-23T04:01:57;3.92;;;1.52;;
5616;SDS011;2830;50.656;7.568;2024-03-23T04:04:23;2.17;;;1.20;;
5616;SDS011;2830;50.656;7.568;2024-03-23T04:06:49;2.40;;;1.40;;
5616;SDS011;2830;50.656;7.568;2024-03-23T04:09:15;7.00;;;1.53;;
5616;SDS011;2830;50.656;7.568;2024-03-23T04:11:41;5.77;;;1.60;;
5616;SDS011;2830;50.656;7.568;2024-03-23T04:14:07;4.70;;;1.57;;
5616;SDS011;2830;50.656;7.568;2024-03-23T04:16:36;3.10;;;1.40;;
5616;SDS011;2830;50.656;7.568;2024-03-23T04:19:02;4.05;;;1.35;;
5616;SDS011;2830;50.656;7.568;2024-03-23T04:21:27;4.30;;;1.53;;
5616;SDS011;2830;50.656;7.568;2024-03-23T04:23:54;5.10;;;1.65;;
5616;SDS011;2830;50.656;7.568;2024-03-23T04:26:20;3.37;;;1.80;;
5616;SDS011;2830;50.656;7.568;2024-03-23T04:28:46;5.93;;;2.00;;
5616;SDS011;2830;50.656;7.568;2024-03-23T04:31:12;2.30;;;1.60;;
5616;SDS011;2830;50.656;7.568;2024-03-23T04:33:37;7.40;;;1.57;;
5616;SDS011;2830;50.656;7.568;2024-03-23T04:36:03;7.00;;;1.40;;
5616;SDS011;2830;50.656;7.568;2024-03-23T04:38:29;2.90;;;1.42;;
5616;SDS011;2830;50.656;7.568;2024-03-23T04:40:56;2.73;;;1.67;;
5616;SDS011;2830;50.656;7.568;2024-03-23T04:43:22;5.38;;;1.90;;
5616;SDS011;2830;50.656;7.568;2024-03-23T04:45:48;2.80;;;1.47;;
5616;SDS011;2830;50.656;7.568;2024-03-23T04:48:15;4.00;;;2.28;;
5616;SDS011;2830;50.656;7.568;2024-03-23T04:50:41;6.63;;;2.70;;
5616;SDS011;2830;50.656;7.568;2024-03-23T04:53:07;4.20;;;2.00;;
5616;SDS011;2830;50.656;7.568;2024-03-23T04:55:33;5.20;;;1.80;;
5616;SDS011;2830;50.656;7.568;2024-03-23T04:57:59;4.17;;;1.50;;
5616;SDS011;2830;50.656;7.568;2024-03-23T05:00:25;10.00;;;2.27;;
5616;SDS011;2830;50.656;7.568;2024-03-23T05:02:51;4.00;;;1.90;;
5616;SDS011;2830;50.656;7.568;2024-03-23T05:05:18;7.78;;;1.50;;
5616;SDS011;2830;50.656;7.568;2024-03-23T05:07:44;7.60;;;2.10;;
5616;SDS011;2830;50.656;7.568;2024-03-23T05:10:10;10.10;;;1.80;;
5616;SDS011;2830;50.656;7.568;2024-03-23T05:12:36;4.80;;;1.80;;
5616;SDS011;2830;50.656;7.568;2024-03-23T05:15:04;9.02;;;1.80;;
5616;SDS011;2830;50.656;7.568;2024-03-23T05:17:31;8.57;;;2.50;;
5616;SDS011;2830;50.656;7.568;2024-03-23T05:19:57;8.77;;;2.30;;
5616;SDS011;2830;50.656;7.568;2024-03-23T05:22:23;5.40;;;2.23;;
5616;SDS011;2830;50.656;7.568;2024-03-23T05:24:49;4.80;;;2.00;;
5616;SDS011;2830;50.656;7.568;2024-03-23T05:27:15;5.13;;;1.73;;
5616;SDS011;2830;50.656;7.568;2024-03-23T05:29:41;9.27;;;2.10;;
5616;SDS011;2830;50.656;7.568;2024-03-23T05:32:06;12.83;;;3.80;;
5616;SDS011;2830;50.656;7.568;2024-03-23T05:34:32;4.73;;;1.90;;
5616;SDS011;2830;50.656;7.568;2024-03-23T05:36:58;4.43;;;1.85;;
5616;SDS011;2830;50.656;7.568;2024-03-23T05:39:24;7.45;;;1.92;;
5616;SDS011;2830;50.656;7.568;2024-03-23T05:41:50;7.93;;;2.10;;
5616;SDS011;2830;50.656;7.568;2024-03-23T05:44:17;6.68;;;2.85;;
5616;SDS011;2830;50.656;7.568;2024-03-23T05:46:43;4.88;;;2.78;;
5616;SDS011;2830;50.656;7.568;2024-03-23T05:49:13;11.93;;;3.75;;
5616;SDS011;2830;50.656;7.568;2024-03-23T05:51:40;9.68;;;3.75;;
5616;SDS011;2830;50.656;7.568;2024-03-23T05:54:06;16.43;;;4.80;;
5616;SDS011;2830;50.656;7.568;2024-03-23T05:56:32;8.70;;;3.63;;
5616;SDS011;2830;50.656;7.568;2024-03-23T05:58:58;7.90;;;5.10;;
5616;SDS011;2830;50.656;7.568;2024-03-23T06:01:24;8.63;;;4.33;;
5616;SDS011;2830;50.656;7.568;2024-03-23T06:03:50;11.70;;;5.10;;
5616;SDS011;2830;50.656;7.568;2024-03-23T06:06:16;14.25;;;5.43;;
5616;SDS011;2830;50.656;7.568;2024-03-23T06:08:42;8.83;;;4.30;;
5616;SDS011;2830;50.656;7.568;2024-03-23T06:11:08;13.90;;;4.47;;
5616;SDS011;2830;50.656;7.568;2024-03-23T06:13:33;15.73;;;5.23;;
5616;SDS011;2830;50.656;7.568;2024-03-23T06:16:00;10.73;;;4.18;;
5616;SDS011;2830;50.656;7.568;2024-03-23T06:18:27;9.68;;;5.32;;
5616;SDS011;2830;50.656;7.568;2024-03-23T06:20:53;18.30;;;9.27;;
5616;SDS011;2830;50.656;7.568;2024-03-23T06:23:19;25.27;;;9.30;;
5616;SDS011;2830;50.656;7.568;2024-03-23T06:25:46;12.13;;;5.75;;
5616;SDS011;2830;50.656;7.568;2024-03-23T06:28:12;13.05;;;4.95;;
5616;SDS011;2830;50.656;7.568;2024-03-23T06:30:38;10.30;;;4.50;;
5616;SDS011;2830;50.656;7.568;2024-03-23T06:33:04;12.30;;;5.10;;
5616;SDS011;2830;50.656;7.568;2024-03-23T06:35:31;9.55;;;4.95;;
5616;SDS011;2830;50.656;7.568;2024-03-23T06:37:57;14.65;;;5.97;;
5616;SDS011;2830;50.656;7.568;2024-03-23T06:40:23;10.90;;;4.72;;
5616;SDS011;2830;50.656;7.568;2024-03-23T06:42:49;19.80;;;5.68;;
5616;SDS011;2830;50.656;7.568;2024-03-23T06:45:16;14.63;;;6.43;;
5616;SDS011;2830;50.656;7.568;2024-03-23T06:47:42;8.45;;;4.82;;
5616;SDS011;2830;50.656;7.568;2024-03-23T06:50:08;7.87;;;3.93;;
5616;SDS011;2830;50.656;7.568;2024-03-23T06:52:35;10.50;;;4.28;;
5616;SDS011;2830;50.656;7.568;2024-03-23T06:55:01;11.33;;;4.63;;
5616;SDS011;2830;50.656;7.568;2024-03-23T06:57:29;11.75;;;3.90;;
5616;SDS011;2830;50.656;7.568;2024-03-23T06:59:55;13.53;;;5.83;;
5616;SDS011;2830;50.656;7.568;2024-03-23T07:02:21;15.10;;;6.73;;
5616;SDS011;2830;50.656;7.568;2024-03-23T07:04:47;12.68;;;5.63;;
5616;SDS011;2830;50.656;7.568;2024-03-23T07:07:13;11.47;;;5.17;;
5616;SDS011;2830;50.656;7.568;2024-03-23T07:09:39;7.07;;;3.10;;
5616;SDS011;2830;50.656;7.568;2024-03-23T07:12:05;9.03;;;3.37;;
5616;SDS011;2830;50.656;7.568;2024-03-23T07:14:31;6.38;;;2.90;;
5616;SDS011;2830;50.656;7.568;2024-03-23T07:16:57;9.50;;;3.23;;
5616;SDS011;2830;50.656;7.568;2024-03-23T07:19:23;14.13;;;4.20;;
5616;SDS011;2830;50.656;7.568;2024-03-23T07:21:49;13.37;;;3.00;;
5616;SDS011;2830;50.656;7.568;2024-03-23T07:24:15;4.40;;;2.43;;
5616;SDS011;2830;50.656;7.568;2024-03-23T07:26:41;10.93;;;2.40;;
5616;SDS011;2830;50.656;7.568;2024-03-23T07:29:07;8.20;;;2.70;;
5616;SDS011;2830;50.656;7.568;2024-03-23T07:31:33;7.30;;;2.50;;
5616;SDS011;2830;50.656;7.568;2024-03-23T07:33:59;9.37;;;2.63;;
5616;SDS011;2830;50.656;7.568;2024-03-23T07:36:25;12.80;;;3.17;;
5616;SDS011;2830;50.656;7.568;2024-03-23T07:38:51;7.90;;;3.40;;
5616;SDS011;2830;50.656;7.568;2024-03-23T07:41:17;6.97;;;2.50;;
5616;SDS011;2830;50.656;7.568;2024-03-23T07:43:44;5.83;;;2.73;;
5616;SDS011;2830;50.656;7.568;2024-03-23T07:46:11;9.73;;;2.53;;
5616;SDS011;2830;50.656;7.568;2024-03-23T07:48:38;10.13;;;2.70;;
5616;SDS011;2830;50.656;7.568;2024-03-23T07:51:15;5.33;;;2.20;;
5616;SDS011;2830;50.656;7.568;2024-03-23T07:53:43;19.43;;;3.10;;
5616;SDS011;2830;50.656;7.568;2024-03-23T07:56:11;13.53;;;4.43;;
5616;SDS011;2830;50.656;7.568;2024-03-23T07:58:37;9.63;;;3.50;;
5616;SDS011;2830;50.656;7.568;2024-03-23T08:01:08;11.73;;;3.40;;
5616;SDS011;2830;50.656;7.568;2024-03-23T08:03:39;7.70;;;3.07;;
5616;SDS011;2830;50.656;7.568;2024-03-23T08:08:42;20.20;;;4.60;;
5616;SDS011;2830;50.656;7.568;2024-03-23T08:11:13;12.70;;;4.87;;
5616;SDS011;2830;50.656;7.568;2024-03-23T08:13:40;7.53;;;3.60;;
5616;SDS011;2830;50.656;7.568;2024-03-23T08:16:10;11.23;;;3.20;;
5616;SDS011;2830;50.656;7.568;2024-03-23T08:18:39;13.50;;;3.40;;
5616;SDS011;2830;50.656;7.568;2024-03-23T08:21:05;13.83;;;3.43;;
5616;SDS011;2830;50.656;7.568;2024-03-23T08:23:32;11.00;;;3.07;;
5616;SDS011;2830;50.656;7.568;2024-03-23T08:26:01;7.00;;;3.40;;
5616;SDS011;2830;50.656;7.568;2024-03-23T08:28:28;9.93;;;4.07;;
5616;SDS011;2830;50.656;7.568;2024-03-23T08:30:54;8.57;;;3.20;;
5616;SDS011;2830;50.656;7.568;2024-03-23T08:33:21;7.40;;;3.27;;
5616;SDS011;2830;50.656;7.568;2024-03-23T08:35:55;11.20;;;3.20;;
5616;SDS011;2830;50.656;7.568;2024-03-23T08:38:22;10.90;;;3.70;;
5616;SDS011;2830;50.656;7.568;2024-03-23T08:43:25;8.03;;;3.23;;
5616;SDS011;2830;50.656;7.568;2024-03-23T08:45:52;11.30;;;3.30;;
5616;SDS011;2830;50.656;7.568;2024-03-23T08:48:21;6.33;;;2.47;;
5616;SDS011;2830;50.656;7.568;2024-03-23T08:50:47;13.20;;;3.07;;
5616;SDS011;2830;50.656;7.568;2024-03-23T08:53:23;5.60;;;1.90;;
5616;SDS011;2830;50.656;7.568;2024-03-23T08:55:55;8.60;;;1.93;;
5616;SDS011;2830;50.656;7.568;2024-03-23T08:58:23;10.00;;;1.90;;
5616;SDS011;2830;50.656;7.568;2024-03-23T09:00:50;6.13;;;1.63;;
5616;SDS011;2830;50.656;7.568;2024-03-23T09:03:20;4.07;;;1.33;;
5616;SDS011;2830;50.656;7.568;2024-03-23T09:05:46;4.80;;;1.77;;
5616;SDS011;2830;50.656;7.568;2024-03-23T09:08:12;4.93;;;1.83;;
5616;SDS011;2830;50.656;7.568;2024-03-23T09:10:39;2.03;;;0.80;;
5616;SDS011;2830;50.656;7.568;2024-03-23T09:13:05;5.30;;;1.33;;
5616;SDS011;2830;50.656;7.568;2024-03-23T09:15:32;2.77;;;0.90;;
5616;SDS011;2830;50.656;7.568;2024-03-23T09:17:59;5.80;;;1.00;;
5616;SDS011;2830;50.656;7.568;2024-03-23T09:20:25;7.23;;;1.40;;
5616;SDS011;2830;50.656;7.568;2024-03-23T09:22:51;6.50;;;1.20;;
5616;SDS011;2830;50.656;7.568;2024-03-23T09:25:18;5.30;;;1.43;;
5616;SDS011;2830;50.656;7.568;2024-03-23T09:27:47;3.87;;;1.80;;
5616;SDS011;2830;50.656;7.568;2024-03-23T09:30:16;4.27;;;1.10;;
5616;SDS011;2830;50.656;7.568;2024-03-23T09:32:45;4.50;;;1.40;;
5616;SDS011;2830;50.656;7.568;2024-03-23T09:35:11;6.80;;;1.50;;
5616;SDS011;2830;50.656;7.568;2024-03-23T09:37:38;8.00;;;1.20;;
5616;SDS011;2830;50.656;7.568;2024-03-23T09:40:10;20.23;;;3.33;;
5616;SDS011;2830;50.656;7.568;2024-03-23T09:42:36;8.60;;;2.77;;
5616;SDS011;2830;50.656;7.568;2024-03-23T09:45:05;6.13;;;2.27;;
5616;SDS011;2830;50.656;7.568;2024-03-23T09:47:36;5.10;;;1.53;;
5616;SDS011;2830;50.656;7.568;2024-03-23T09:50:03;9.20;;;2.57;;
5616;SDS011;2830;50.656;7.568;2024-03-23T09:52:30;4.60;;;2.10;;
5616;SDS011;2830;50.656;7.568;2024-03-23T09:54:56;8.73;;;2.23;;
5616;SDS011;2830;50.656;7.568;2024-03-23T09:57:22;7.83;;;2.33;;
5616;SDS011;2830;50.656;7.568;2024-03-23T09:59:49;5.70;;;2.47;;
5616;SDS011;2830;50.656;7.568;2024-03-23T10:02:15;10.33;;;2.50;;
5616;SDS011;2830;50.656;7.568;2024-03-23T10:04:42;7.33;;;2.00;;
5616;SDS011;2830;50.656;7.568;2024-03-23T10:07:13;9.17;;;3.07;;
5616;SDS011;2830;50.656;7.568;2024-03-23T10:09:39;10.33;;;5.37;;
5616;SDS011;2830;50.656;7.568;2024-03-23T10:12:09;11.13;;;3.37;;
5616;SDS011;2830;50.656;7.568;2024-03-23T10:14:37;13.00;;;2.80;;
5616;SDS011;2830;50.656;7.568;2024-03-23T10:19:48;6.70;;;2.23;;
5616;SDS011;2830;50.656;7.568;2024-03-23T10:22:17;8.63;;;2.10;;
5616;SDS011;2830;50.656;7.568;2024-03-23T10:24:47;6.47;;;2.10;;
5616;SDS011;2830;50.656;7.568;2024-03-23T10:27:18;4.70;;;1.83;;
5616;SDS011;2830;50.656;7.568;2024-03-23T10:29:49;7.50;;;2.50;;
5616;SDS011;2830;50.656;7.568;2024-03-23T10:32:16;4.10;;;1.13;;
5616;SDS011;2830;50.656;7.568;2024-03-23T10:34:43;7.47;;;1.60;;
5616;SDS011;2830;50.656;7.568;2024-03-23T10:37:09;6.87;;;1.73;;
5616;SDS011;2830;50.656;7.568;2024-03-23T10:39:39;6.93;;;1.27;;
5616;SDS011;2830;50.656;7.568;2024-03-23T10:42:07;16.03;;;1.90;;
5616;SDS011;2830;50.656;7.568;2024-03-23T10:44:35;6.47;;;1.73;;
5616;SDS011;2830;50.656;7.568;2024-03-23T10:47:01;10.10;;;2.53;;
5616;SDS011;2830;50.656;7.568;2024-03-23T10:49:30;11.27;;;2.37;;
5616;SDS011;2830;50.656;7.568;2024-03-23T10:52:00;13.10;;;1.80;;
5616;SDS011;2830;50.656;7.568;2024-03-23T10:54:27;5.80;;;1.53;;
5616;SDS011;2830;50.656;7.568;2024-03-23T10:57:13;4.40;;;1.43;;
5616;SDS011;2830;50.656;7.568;2024-03-23T10:59:42;5.27;;;1.07;;
5616;SDS011;2830;50.656;7.568;2024-03-23T11:02:20;6.03;;;1.17;;
5616;SDS011;2830;50.656;7.568;2024-03-23T11:04:46;3.67;;;1.30;;
5616;SDS011;2830;50.656;7.568;2024-03-23T11:09:57;5.20;;;2.20;;
5616;SDS011;2830;50.656;7.568;2024-03-23T11:15:04;2.37;;;0.80;;
5616;SDS011;2830;50.656;7.568;2024-03-23T11:17:31;1.87;;;0.50;;
5616;SDS011;2830;50.656;7.568;2024-03-23T11:19:58;1.97;;;0.83;;
5616;SDS011;2830;50.656;7.568;2024-03-23T11:25:03;1.63;;;0.52;;
5616;SDS011;2830;50.656;7.568;2024-03-23T11:27:39;1.60;;;0.60;;
5616;SDS011;2830;50.656;7.568;2024-03-23T11:30:12;1.83;;;0.60;;
5616;SDS011;2830;50.656;7.568;2024-03-23T11:32:43;1.50;;;0.50;;
5616;SDS011;2830;50.656;7.568;2024-03-23T11:35:10;2.37;;;0.50;;
5616;SDS011;2830;50.656;7.568;2024-03-23T11:38:01;1.87;;;0.60;;
5616;SDS011;2830;50.656;7.568;2024-03-23T11:40:26;1.20;;;0.50;;
5616;SDS011;2830;50.656;7.568;2024-03-23T11:42:55;2.03;;;0.60;;
5616;SDS011;2830;50.656;7.568;2024-03-23T11:45:22;2.90;;;0.60;;
5616;SDS011;2830;50.656;7.568;2024-03-23T11:47:48;3.17;;;0.50;;
5616;SDS011;2830;50.656;7.568;2024-03-23T11:50:26;6.77;;;0.90;;
5616;SDS011;2830;50.656;7.568;2024-03-23T11:52:52;1.70;;;0.60;;
5616;SDS011;2830;50.656;7.568;2024-03-23T11:55:18;2.00;;;0.80;;
5616;SDS011;2830;50.656;7.568;2024-03-23T11:57:44;3.80;;;0.80;;
5616;SDS011;2830;50.656;7.568;2024-03-23T12:00:22;1.97;;;0.67;;
5616;SDS011;2830;50.656;7.568;2024-03-23T12:02:49;3.80;;;1.07;;
5616;SDS011;2830;50.656;7.568;2024-03-23T12:05:18;4.33;;;1.00;;
5616;SDS011;2830;50.656;7.568;2024-03-23T12:07:45;1.77;;;0.70;;
5616;SDS011;2830;50.656;7.568;2024-03-23T12:10:11;2.50;;;0.87;;
5616;SDS011;2830;50.656;7.568;2024-03-23T12:12:37;2.90;;;0.90;;
5616;SDS011;2830;50.656;7.568;2024-03-23T12:15:06;3.37;;;1.00;;
5616;SDS011;2830;50.656;7.568;2024-03-23T12:17:34;4.53;;;1.40;;
5616;SDS011;2830;50.656;7.568;2024-03-23T12:20:00;2.70;;;0.83;;
5616;SDS011;2830;50.656;7.568;2024-03-23T12:22:27;2.43;;;0.90;;
5616;SDS011;2830;50.656;7.568;2024-03-23T12:24:54;2.40;;;1.00;;
5616;SDS011;2830;50.656;7.568;2024-03-23T12:27:23;2.10;;;0.90;;
5616;SDS011;2830;50.656;7.568;2024-03-23T12:29:49;3.67;;;1.27;;
5616;SDS011;2830;50.656;7.568;2024-03-23T12:32:15;3.70;;;1.07;;
5616;SDS011;2830;50.656;7.568;2024-03-23T12:34:41;2.50;;;1.00;;
5616;SDS011;2830;50.656;7.568;2024-03-23T12:37:07;3.57;;;0.93;;
5616;SDS011;2830;50.656;7.568;2024-03-23T12:39:34;4.50;;;1.30;;
5616;SDS011;2830;50.656;7.568;2024-03-23T12:42:01;5.63;;;1.50;;
5616;SDS011;2830;50.656;7.568;2024-03-23T12:44:28;3.97;;;1.03;;
5616;SDS011;2830;50.656;7.568;2024-03-23T12:46:54;3.40;;;1.40;;
5616;SDS011;2830;50.656;7.568;2024-03-23T12:49:20;5.67;;;1.83;;
5616;SDS011;2830;50.656;7.568;2024-03-23T12:51:48;5.67;;;1.97;;
5616;SDS011;2830;50.656;7.568;2024-03-23T12:54:22;6.93;;;1.70;;
5616;SDS011;2830;50.656;7.568;2024-03-23T12:56:49;2.20;;;1.10;;
5616;SDS011;2830;50.656;7.568;2024-03-23T12:59:15;9.13;;;1.73;;
5616;SDS011;2830;50.656;7.568;2024-03-23T13:01:42;4.57;;;1.50;;
5616;SDS011;2830;50.656;7.568;2024-03-23T13:04:09;7.13;;;3.70;;
5616;SDS011;2830;50.656;7.568;2024-03-23T13:06:35;4.80;;;1.40;;
5616;SDS011;2830;50.656;7.568;2024-03-23T13:09:01;6.33;;;1.50;;
5616;SDS011;2830;50.656;7.568;2024-03-23T13:11:28;3.87;;;1.10;;
5616;SDS011;2830;50.656;7.568;2024-03-23T13:13:55;3.40;;;1.30;;
5616;SDS011;2830;50.656;7.568;2024-03-23T13:16:21;5.00;;;1.30;;
5616;SDS011;2830;50.656;7.568;2024-03-23T13:18:47;4.20;;;1.33;;
5616;SDS011;2830;50.656;7.568;2024-03-23T13:21:13;4.63;;;1.30;;
5616;SDS011;2830;50.656;7.568;2024-03-23T13:23:39;7.10;;;2.23;;
5616;SDS011;2830;50.656;7.568;2024-03-23T13:26:07;4.83;;;1.27;;
5616;SDS011;2830;50.656;7.568;2024-03-23T13:28:33;5.70;;;1.77;;
5616;SDS011;2830;50.656;7.568;2024-03-23T13:31:01;3.53;;;1.57;;
5616;SDS011;2830;50.656;7.568;2024-03-23T13:33:30;6.17;;;1.67;;
5616;SDS011;2830;50.656;7.568;2024-03-23T13:35:59;3.07;;;1.27;;
5616;SDS011;2830;50.656;7.568;2024-03-23T13:38:25;2.93;;;1.10;;
5616;SDS011;2830;50.656;7.568;2024-03-23T13:40:52;3.80;;;1.50;;
5616;SDS011;2830;50.656;7.568;2024-03-23T13:43:18;6.20;;;1.13;;
5616;SDS011;2830;50.656;7.568;2024-03-23T13:45:45;3.00;;;1.03;;
5616;SDS011;2830;50.656;7.568;2024-03-23T13:48:16;5.73;;;1.10;;
5616;SDS011;2830;50.656;7.568;2024-03-23T13:50:43;4.80;;;1.43;;
5616;SDS011;2830;50.656;7.568;2024-03-23T13:53:09;2.43;;;1.10;;
5616;SDS011;2830;50.656;7.568;2024-03-23T13:55:35;2.37;;;1.00;;
5616;SDS011;2830;50.656;7.568;2024-03-23T13:58:01;2.10;;;0.97;;
5616;SDS011;2830;50.656;7.568;2024-03-23T14:00:27;7.33;;;1.63;;
5616;SDS011;2830;50.656;7.568;2024-03-23T14:02:53;4.97;;;1.47;;
5616;SDS011;2830;50.656;7.568;2024-03-23T14:05:19;3.03;;;1.30;;
5616;SDS011;2830;50.656;7.568;2024-03-23T14:07:45;3.30;;;1.53;;
5616;SDS011;2830;50.656;7.568;2024-03-23T14:10:11;3.80;;;1.30;;
5616;SDS011;2830;50.656;7.568;2024-03-23T14:12:38;2.60;;;1.00;;
5616;SDS011;2830;50.656;7.568;2024-03-23T14:15:07;5.57;;;1.00;;
5616;SDS011;2830;50.656;7.568;2024-03-23T14:17:33;2.73;;;1.30;;
5616;SDS011;2830;50.656;7.568;2024-03-23T14:19:59;4.67;;;1.47;;
5616;SDS011;2830;50.656;7.568;2024-03-23T14:22:27;4.50;;;1.30;;
5616;SDS011;2830;50.656;7.568;2024-03-23T14:24:53;3.67;;;1.20;;
5616;SDS011;2830;50.656;7.568;2024-03-23T14:27:19;2.70;;;1.20;;
5616;SDS011;2830;50.656;7.568;2024-03-23T14:29:46;3.87;;;1.33;;
5616;SDS011;2830;50.656;7.568;2024-03-23T14:32:13;2.80;;;1.10;;
5616;SDS011;2830;50.656;7.568;2024-03-23T14:34:40;4.37;;;1.60;;
5616;SDS011;2830;50.656;7.568;2024-03-23T14:37:06;5.00;;;1.70;;
5616;SDS011;2830;50.656;7.568;2024-03-23T14:39:32;5.93;;;1.70;;
5616;SDS011;2830;50.656;7.568;2024-03-23T14:42:02;4.43;;;1.40;;
5616;SDS011;2830;50.656;7.568;2024-03-23T14:44:29;3.87;;;1.33;;
5616;SDS011;2830;50.656;7.568;2024-03-23T14:46:54;3.53;;;1.00;;
5616;SDS011;2830;50.656;7.568;2024-03-23T14:49:21;2.10;;;1.03;;
5616;SDS011;2830;50.656;7.568;2024-03-23T14:51:47;4.07;;;1.23;;
5616;SDS011;2830;50.656;7.568;2024-03-23T14:54:13;2.37;;;1.10;;
5616;SDS011;2830;50.656;7.568;2024-03-23T14:56:39;3.87;;;1.00;;
5616;SDS011;2830;50.656;7.568;2024-03-23T14:59:05;4.13;;;1.30;;
5616;SDS011;2830;50.656;7.568;2024-03-23T15:01:31;4.50;;;1.60;;
5616;SDS011;2830;50.656;7.568;2024-03-23T15:04:00;3.87;;;1.17;;
5616;SDS011;2830;50.656;7.568;2024-03-23T15:06:26;3.83;;;1.10;;
5616;SDS011;2830;50.656;7.568;2024-03-23T15:08:52;2.50;;;1.20;;
5616;SDS011;2830;50.656;7.568;2024-03-23T15:11:19;6.07;;;1.67;;
5616;SDS011;2830;50.656;7.568;2024-03-23T15:13:45;3.43;;;1.30;;
5616;SDS011;2830;50.656;7.568;2024-03-23T15:16:18;3.80;;;1.50;;
5616;SDS011;2830;50.656;7.568;2024-03-23T15:18:47;8.60;;;2.10;;
5616;SDS011;2830;50.656;7.568;2024-03-23T15:21:13;7.15;;;2.42;;
5616;SDS011;2830;50.656;7.568;2024-03-23T15:23:45;5.70;;;2.10;;
5616;SDS011;2830;50.656;7.568;2024-03-23T15:26:11;3.40;;;1.27;;
5616;SDS011;2830;50.656;7.568;2024-03-23T15:28:37;5.83;;;1.40;;
5616;SDS011;2830;50.656;7.568;2024-03-23T15:31:28;2.83;;;1.42;;
5616;SDS011;2830;50.656;7.568;2024-03-23T15:33:57;4.40;;;1.08;;
5616;SDS011;2830;50.656;7.568;2024-03-23T15:36:24;5.60;;;0.90;;
5616;SDS011;2830;50.656;7.568;2024-03-23T15:38:49;2.73;;;1.00;;
5616;SDS011;2830;50.656;7.568;2024-03-23T15:41:15;3.73;;;0.83;;
5616;SDS011;2830;50.656;7.568;2024-03-23T15:43:41;2.00;;;1.10;;
5616;SDS011;2830;50.656;7.568;2024-03-23T15:46:07;1.57;;;0.80;;
5616;SDS011;2830;50.656;7.568;2024-03-23T15:48:35;4.30;;;1.40;;
5616;SDS011;2830;50.656;7.568;2024-03-23T15:51:02;7.65;;;1.88;;
5616;SDS011;2830;50.656;7.568;2024-03-23T15:53:32;2.05;;;0.77;;
5616;SDS011;2830;50.656;7.568;2024-03-23T15:55:58;3.67;;;1.03;;
5616;SDS011;2830;50.656;7.568;2024-03-23T15:58:26;1.88;;;0.98;;
5616;SDS011;2830;50.656;7.568;2024-03-23T16:00:56;4.15;;;1.30;;
5616;SDS011;2830;50.656;7.568;2024-03-23T16:03:30;8.63;;;1.63;;
5616;SDS011;2830;50.656;7.568;2024-03-23T16:05:58;3.47;;;1.30;;
5616;SDS011;2830;50.656;7.568;2024-03-23T16:08:25;3.38;;;1.05;;
5616;SDS011;2830;50.656;7.568;2024-03-23T16:10:52;1.50;;;0.93;;
5616;SDS011;2830;50.656;7.568;2024-03-23T16:13:19;3.65;;;2.60;;
5616;SDS011;2830;50.656;7.568;2024-03-23T16:15:45;2.40;;;1.20;;
5616;SDS011;2830;50.656;7.568;2024-03-23T16:18:19;6.63;;;1.40;;
5616;SDS011;2830;50.656;7.568;2024-03-23T16:21:18;1.43;;;0.77;;